sensor_id;sensor_type;location;lat;lon;timestamp;P1;durP1;ratioP1;P2;durP2;ratioP2
17496;SDS011;62150;43.582;1.456;2023-06-22T06:23:52;9.32;;;4.85;;
17496;SDS011;62150;43.582;1.456;2023-06-22T06:26:20;10.10;;;4.57;;
17496;SDS011;62150;43.582;1.456;2023-06-22T06:28:55;10.98;;;4.93;;
17496;SDS011;62150;43.582;1.456;2023-06-22T06:31:23;11.35;;;5.15;;
17496;SDS011;62150;43.582;1.456;2023-06-22T06:33:52;10.85;;;5.00;;
17496;SDS011;62150;43.582;1.456;2023-06-22T06:36:20;11.50;;;5.20;;
17496;SDS011;62150;43.582;1.456;2023-06-22T06:38:48;12.65;;;5.43;;
17496;SDS011;62150;43.582;1.456;2023-06-22T06:41:26;12.95;;;5.13;;
17496;SDS011;62150;43.582;1.456;2023-06-22T06:43:53;10.25;;;5.13;;
17496;SDS011;62150;43.582;1.456;2023-06-22T06:46:21;11.13;;;5.22;;
17496;SDS011;62150;43.582;1.456;2023-06-22T06:48:48;10.07;;;4.97;;
17496;SDS011;62150;43.582;1.456;2023-06-22T06:51:16;10.57;;;5.18;;
17496;SDS011;62150;43.582;1.456;2023-06-22T06:53:43;10.32;;;5.18;;
17496;SDS011;62150;43.582;1.456;2023-06-22T06:56:10;12.02;;;5.43;;
17496;SDS011;62150;43.582;1.456;2023-06-22T06:58:40;9.65;;;5.15;;
17496;SDS011;62150;43.582;1.456;2023-06-22T07:01:10;10.40;;;4.90;;
17496;SDS011;62150;43.582;1.456;2023-06-22T07:03:37;9.75;;;4.75;;
17496;SDS011;62150;43.582;1.456;2023-06-22T07:06:05;11.48;;;5.10;;
17496;SDS011;62150;43.582;1.456;2023-06-22T07:08:32;10.27;;;4.82;;
17496;SDS011;62150;43.582;1.456;2023-06-22T07:11:02;10.73;;;4.80;;
17496;SDS011;62150;43.582;1.456;2023-06-22T07:13:29;9.98;;;4.63;;
17496;SDS011;62150;43.582;1.456;2023-06-22T07:15:58;9.07;;;4.47;;
17496;SDS011;62150;43.582;1.456;2023-06-22T07:18:25;9.25;;;4.72;;
17496;SDS011;62150;43.582;1.456;2023-06-22T07:20:53;9.13;;;4.38;;
17496;SDS011;62150;43.582;1.456;2023-06-22T07:23:21;8.68;;;4.38;;
17496;SDS011;62150;43.582;1.456;2023-06-22T07:25:48;8.52;;;4.30;;
17496;SDS011;62150;43.582;1.456;2023-06-22T07:28:16;8.35;;;4.15;;
17496;SDS011;62150;43.582;1.456;2023-06-22T07:30:44;8.45;;;4.00;;
17496;SDS011;62150;43.582;1.456;2023-06-22T07:33:13;8.85;;;3.85;;
17496;SDS011;62150;43.582;1.456;2023-06-22T07:35:42;8.63;;;4.22;;
17496;SDS011;62150;43.582;1.456;2023-06-22T07:38:09;8.70;;;3.90;;
17496;SDS011;62150;43.582;1.456;2023-06-22T07:40:37;7.35;;;3.95;;
17496;SDS011;62150;43.582;1.456;2023-06-22T07:43:04;8.05;;;3.85;;
17496;SDS011;62150;43.582;1.456;2023-06-22T07:45:32;8.25;;;3.75;;
17496;SDS011;62150;43.582;1.456;2023-06-22T07:48:00;6.25;;;3.22;;
17496;SDS011;62150;43.582;1.456;2023-06-22T07:50:29;6.95;;;3.45;;
17496;SDS011;62150;43.582;1.456;2023-06-22T07:52:56;6.68;;;3.45;;
17496;SDS011;62150;43.582;1.456;2023-06-22T07:55:24;6.03;;;3.17;;
17496;SDS011;62150;43.582;1.456;2023-06-22T07:57:51;6.38;;;3.22;;
17496;SDS011;62150;43.582;1.456;2023-06-22T08:00:19;6.63;;;3.47;;
17496;SDS011;62150;43.582;1.456;2023-06-22T08:02:47;7.10;;;3.30;;
17496;SDS011;62150;43.582;1.456;2023-06-22T08:05:14;7.20;;;2.75;;
17496;SDS011;62150;43.582;1.456;2023-06-22T08:07:44;5.47;;;2.80;;
17496;SDS011;62150;43.582;1.456;2023-06-22T08:10:11;5.53;;;2.75;;
17496;SDS011;62150;43.582;1.456;2023-06-22T08:12:40;7.20;;;3.20;;
17496;SDS011;62150;43.582;1.456;2023-06-22T08:15:08;6.93;;;3.30;;
17496;SDS011;62150;43.582;1.456;2023-06-22T08:17:36;7.80;;;3.50;;
17496;SDS011;62150;43.582;1.456;2023-06-22T08:20:04;7.15;;;3.15;;
17496;SDS011;62150;43.582;1.456;2023-06-22T08:22:34;8.02;;;3.60;;
17496;SDS011;62150;43.582;1.456;2023-06-22T08:25:04;9.18;;;3.80;;
17496;SDS011;62150;43.582;1.456;2023-06-22T08:27:32;9.00;;;3.60;;
17496;SDS011;62150;43.582;1.456;2023-06-22T08:30:00;7.07;;;3.50;;
17496;SDS011;62150;43.582;1.456;2023-06-22T08:32:32;7.25;;;3.65;;
17496;SDS011;62150;43.582;1.456;2023-06-22T08:35:00;8.52;;;3.65;;
17496;SDS011;62150;43.582;1.456;2023-06-22T08:37:27;7.70;;;3.33;;
17496;SDS011;62150;43.582;1.456;2023-06-22T08:39:56;7.22;;;3.40;;
17496;SDS011;62150;43.582;1.456;2023-06-22T08:42:27;9.48;;;3.88;;
17496;SDS011;62150;43.582;1.456;2023-06-22T08:44:55;8.55;;;3.70;;
17496;SDS011;62150;43.582;1.456;2023-06-22T08:47:23;9.07;;;4.35;;
17496;SDS011;62150;43.582;1.456;2023-06-22T08:49:51;8.00;;;3.75;;
17496;SDS011;62150;43.582;1.456;2023-06-22T08:52:18;8.07;;;3.40;;
17496;SDS011;62150;43.582;1.456;2023-06-22T08:54:46;7.03;;;3.30;;
17496;SDS011;62150;43.582;1.456;2023-06-22T08:57:13;6.07;;;3.17;;
17496;SDS011;62150;43.582;1.456;2023-06-22T08:59:42;7.53;;;3.60;;
17496;SDS011;62150;43.582;1.456;2023-06-22T09:02:10;7.95;;;3.65;;
17496;SDS011;62150;43.582;1.456;2023-06-22T09:04:37;6.75;;;3.25;;
17496;SDS011;62150;43.582;1.456;2023-06-22T09:07:05;7.38;;;3.30;;
17496;SDS011;62150;43.582;1.456;2023-06-22T09:09:33;6.82;;;3.03;;
17496;SDS011;62150;43.582;1.456;2023-06-22T09:12:00;7.68;;;3.22;;
17496;SDS011;62150;43.582;1.456;2023-06-22T09:14:28;8.80;;;3.53;;
17496;SDS011;62150;43.582;1.456;2023-06-22T09:16:57;6.55;;;3.10;;
17496;SDS011;62150;43.582;1.456;2023-06-22T09:19:24;7.32;;;3.10;;
17496;SDS011;62150;43.582;1.456;2023-06-22T09:21:52;5.85;;;3.08;;
17496;SDS011;62150;43.582;1.456;2023-06-22T09:24:20;6.60;;;3.15;;
17496;SDS011;62150;43.582;1.456;2023-06-22T09:26:47;7.95;;;3.40;;
17496;SDS011;62150;43.582;1.456;2023-06-22T09:29:15;6.65;;;3.25;;
17496;SDS011;62150;43.582;1.456;2023-06-22T09:31:43;8.50;;;3.30;;
17496;SDS011;62150;43.582;1.456;2023-06-22T09:34:12;8.38;;;3.40;;
17496;SDS011;62150;43.582;1.456;2023-06-22T09:36:40;7.78;;;3.33;;
17496;SDS011;62150;43.582;1.456;2023-06-22T09:39:08;7.50;;;3.47;;
17496;SDS011;62150;43.582;1.456;2023-06-22T09:41:35;7.72;;;3.40;;
17496;SDS011;62150;43.582;1.456;2023-06-22T09:44:03;6.68;;;3.25;;
17496;SDS011;62150;43.582;1.456;2023-06-22T09:46:31;7.28;;;3.50;;
17496;SDS011;62150;43.582;1.456;2023-06-22T09:48:58;8.70;;;3.63;;
17496;SDS011;62150;43.582;1.456;2023-06-22T09:51:27;6.65;;;3.28;;
17496;SDS011;62150;43.582;1.456;2023-06-22T09:53:54;8.18;;;3.40;;
17496;SDS011;62150;43.582;1.456;2023-06-22T09:56:23;7.50;;;3.53;;
17496;SDS011;62150;43.582;1.456;2023-06-22T09:58:53;7.07;;;3.58;;
17496;SDS011;62150;43.582;1.456;2023-06-22T10:01:24;7.03;;;3.28;;
17496;SDS011;62150;43.582;1.456;2023-06-22T10:03:52;7.72;;;3.30;;
17496;SDS011;62150;43.582;1.456;2023-06-22T10:06:21;7.95;;;3.63;;
17496;SDS011;62150;43.582;1.456;2023-06-22T10:08:51;7.90;;;3.70;;
17496;SDS011;62150;43.582;1.456;2023-06-22T10:11:19;7.28;;;3.67;;
17496;SDS011;62150;43.582;1.456;2023-06-22T10:13:52;7.90;;;3.40;;
17496;SDS011;62150;43.582;1.456;2023-06-22T10:16:19;8.80;;;3.80;;
17496;SDS011;62150;43.582;1.456;2023-06-22T10:18:47;8.55;;;3.60;;
17496;SDS011;62150;43.582;1.456;2023-06-22T10:21:14;7.18;;;3.40;;
17496;SDS011;62150;43.582;1.456;2023-06-22T10:23:42;7.75;;;3.72;;
17496;SDS011;62150;43.582;1.456;2023-06-22T10:26:11;7.13;;;3.50;;
17496;SDS011;62150;43.582;1.456;2023-06-22T10:28:39;7.70;;;3.80;;
17496;SDS011;62150;43.582;1.456;2023-06-22T10:31:06;8.82;;;3.75;;
17496;SDS011;62150;43.582;1.456;2023-06-22T10:33:34;7.50;;;3.63;;
17496;SDS011;62150;43.582;1.456;2023-06-22T10:36:01;9.63;;;4.00;;
17496;SDS011;62150;43.582;1.456;2023-06-22T10:38:29;7.63;;;3.45;;
17496;SDS011;62150;43.582;1.456;2023-06-22T10:40:57;7.43;;;3.78;;
17496;SDS011;62150;43.582;1.456;2023-06-22T10:43:26;8.30;;;3.67;;
17496;SDS011;62150;43.582;1.456;2023-06-22T10:45:53;7.43;;;3.78;;
17496;SDS011;62150;43.582;1.456;2023-06-22T10:48:21;8.57;;;3.65;;
17496;SDS011;62150;43.582;1.456;2023-06-22T10:50:50;7.82;;;3.97;;
17496;SDS011;62150;43.582;1.456;2023-06-22T10:53:18;8.13;;;3.70;;
17496;SDS011;62150;43.582;1.456;2023-06-22T10:55:45;7.63;;;3.60;;
17496;SDS011;62150;43.582;1.456;2023-06-22T10:58:13;6.93;;;3.28;;
17496;SDS011;62150;43.582;1.456;2023-06-22T11:00:42;6.57;;;3.17;;
17496;SDS011;62150;43.582;1.456;2023-06-22T11:03:09;7.18;;;3.33;;
17496;SDS011;62150;43.582;1.456;2023-06-22T11:05:39;6.95;;;3.35;;
17496;SDS011;62150;43.582;1.456;2023-06-22T11:08:06;7.65;;;3.22;;
17496;SDS011;62150;43.582;1.456;2023-06-22T11:10:36;6.63;;;3.33;;
17496;SDS011;62150;43.582;1.456;2023-06-22T11:13:04;8.48;;;3.42;;
17496;SDS011;62150;43.582;1.456;2023-06-22T11:15:34;7.38;;;3.25;;
17496;SDS011;62150;43.582;1.456;2023-06-22T11:18:04;7.20;;;3.38;;
17496;SDS011;62150;43.582;1.456;2023-06-22T11:20:32;6.88;;;3.40;;
17496;SDS011;62150;43.582;1.456;2023-06-22T11:23:03;7.00;;;3.30;;
17496;SDS011;62150;43.582;1.456;2023-06-22T11:25:31;8.57;;;3.80;;
17496;SDS011;62150;43.582;1.456;2023-06-22T11:28:00;6.93;;;3.20;;
17496;SDS011;62150;43.582;1.456;2023-06-22T11:30:28;8.60;;;3.67;;
17496;SDS011;62150;43.582;1.456;2023-06-22T11:32:56;8.98;;;3.90;;
17496;SDS011;62150;43.582;1.456;2023-06-22T11:35:26;7.88;;;3.70;;
17496;SDS011;62150;43.582;1.456;2023-06-22T11:37:53;7.57;;;3.50;;
17496;SDS011;62150;43.582;1.456;2023-06-22T11:40:23;7.28;;;3.40;;
17496;SDS011;62150;43.582;1.456;2023-06-22T11:42:50;7.90;;;3.42;;
17496;SDS011;62150;43.582;1.456;2023-06-22T11:45:21;8.02;;;3.50;;
17496;SDS011;62150;43.582;1.456;2023-06-22T11:47:48;7.97;;;3.53;;
17496;SDS011;62150;43.582;1.456;2023-06-22T11:50:16;7.25;;;3.38;;
17496;SDS011;62150;43.582;1.456;2023-06-22T11:52:45;8.18;;;3.25;;
17496;SDS011;62150;43.582;1.456;2023-06-22T11:55:12;6.97;;;3.30;;
17496;SDS011;62150;43.582;1.456;2023-06-22T11:57:52;7.97;;;3.65;;
17496;SDS011;62150;43.582;1.456;2023-06-22T12:00:20;9.13;;;3.97;;
17496;SDS011;62150;43.582;1.456;2023-06-22T12:02:49;8.75;;;3.70;;
17496;SDS011;62150;43.582;1.456;2023-06-22T12:05:17;7.10;;;3.55;;
17496;SDS011;62150;43.582;1.456;2023-06-22T12:07:48;6.32;;;3.20;;
17496;SDS011;62150;43.582;1.456;2023-06-22T12:10:16;7.28;;;3.53;;
17496;SDS011;62150;43.582;1.456;2023-06-22T12:12:43;7.03;;;3.33;;
17496;SDS011;62150;43.582;1.456;2023-06-22T12:15:11;7.32;;;3.60;;
17496;SDS011;62150;43.582;1.456;2023-06-22T12:17:38;6.28;;;3.13;;
17496;SDS011;62150;43.582;1.456;2023-06-22T12:20:07;8.07;;;3.40;;
17496;SDS011;62150;43.582;1.456;2023-06-22T12:22:35;6.85;;;3.45;;
17496;SDS011;62150;43.582;1.456;2023-06-22T12:25:05;6.78;;;3.38;;
17496;SDS011;62150;43.582;1.456;2023-06-22T12:27:33;6.75;;;3.22;;
17496;SDS011;62150;43.582;1.456;2023-06-22T12:30:01;6.70;;;3.13;;
17496;SDS011;62150;43.582;1.456;2023-06-22T12:32:31;7.13;;;3.50;;
17496;SDS011;62150;43.582;1.456;2023-06-22T12:34:58;6.32;;;3.30;;
17496;SDS011;62150;43.582;1.456;2023-06-22T12:37:26;7.28;;;3.33;;
17496;SDS011;62150;43.582;1.456;2023-06-22T12:39:55;6.57;;;3.30;;
17496;SDS011;62150;43.582;1.456;2023-06-22T12:42:24;6.10;;;3.03;;
17496;SDS011;62150;43.582;1.456;2023-06-22T12:44:53;5.57;;;2.88;;
17496;SDS011;62150;43.582;1.456;2023-06-22T12:47:20;6.15;;;3.13;;
17496;SDS011;62150;43.582;1.456;2023-06-22T12:49:48;7.70;;;3.00;;
17496;SDS011;62150;43.582;1.456;2023-06-22T12:52:15;5.68;;;3.00;;
17496;SDS011;62150;43.582;1.456;2023-06-22T12:54:43;5.78;;;2.67;;
17496;SDS011;62150;43.582;1.456;2023-06-22T12:57:10;4.30;;;2.70;;
17496;SDS011;62150;43.582;1.456;2023-06-22T12:59:40;4.93;;;2.80;;
17496;SDS011;62150;43.582;1.456;2023-06-22T13:02:07;7.10;;;2.83;;
17496;SDS011;62150;43.582;1.456;2023-06-22T13:04:35;5.95;;;3.00;;
17496;SDS011;62150;43.582;1.456;2023-06-22T13:07:02;5.93;;;2.80;;
17496;SDS011;62150;43.582;1.456;2023-06-22T13:09:33;5.40;;;3.00;;
17496;SDS011;62150;43.582;1.456;2023-06-22T13:12:02;6.10;;;2.78;;
17496;SDS011;62150;43.582;1.456;2023-06-22T13:14:30;5.75;;;2.78;;
17496;SDS011;62150;43.582;1.456;2023-06-22T13:16:59;6.53;;;3.20;;
17496;SDS011;62150;43.582;1.456;2023-06-22T13:19:26;5.78;;;2.88;;
17496;SDS011;62150;43.582;1.456;2023-06-22T13:21:57;7.10;;;3.00;;
17496;SDS011;62150;43.582;1.456;2023-06-22T13:24:25;6.40;;;3.13;;
17496;SDS011;62150;43.582;1.456;2023-06-22T13:26:57;6.25;;;3.05;;
17496;SDS011;62150;43.582;1.456;2023-06-22T13:29:25;5.55;;;3.15;;
17496;SDS011;62150;43.582;1.456;2023-06-22T13:31:52;6.95;;;3.15;;
17496;SDS011;62150;43.582;1.456;2023-06-22T13:34:23;5.50;;;3.17;;
17496;SDS011;62150;43.582;1.456;2023-06-22T13:36:51;6.50;;;2.88;;
17496;SDS011;62150;43.582;1.456;2023-06-22T13:39:18;6.85;;;3.47;;
17496;SDS011;62150;43.582;1.456;2023-06-22T13:41:46;6.72;;;3.25;;
17496;SDS011;62150;43.582;1.456;2023-06-22T13:44:13;6.25;;;3.30;;
17496;SDS011;62150;43.582;1.456;2023-06-22T13:46:41;6.38;;;3.13;;
17496;SDS011;62150;43.582;1.456;2023-06-22T13:49:08;5.35;;;3.08;;
17496;SDS011;62150;43.582;1.456;2023-06-22T13:51:37;6.85;;;3.13;;
17496;SDS011;62150;43.582;1.456;2023-06-22T13:54:04;6.72;;;3.50;;
17496;SDS011;62150;43.582;1.456;2023-06-22T13:56:32;6.50;;;3.00;;
17496;SDS011;62150;43.582;1.456;2023-06-22T13:58:59;7.15;;;3.70;;
17496;SDS011;62150;43.582;1.456;2023-06-22T14:01:27;6.32;;;3.42;;
17496;SDS011;62150;43.582;1.456;2023-06-22T14:03:55;6.75;;;3.30;;
17496;SDS011;62150;43.582;1.456;2023-06-22T14:06:22;6.95;;;3.40;;
17496;SDS011;62150;43.582;1.456;2023-06-22T14:08:51;6.78;;;3.45;;
17496;SDS011;62150;43.582;1.456;2023-06-22T14:11:18;7.65;;;3.50;;
17496;SDS011;62150;43.582;1.456;2023-06-22T14:13:46;7.40;;;3.55;;
17496;SDS011;62150;43.582;1.456;2023-06-22T14:16:14;7.00;;;3.47;;
17496;SDS011;62150;43.582;1.456;2023-06-22T14:18:41;6.78;;;3.45;;
17496;SDS011;62150;43.582;1.456;2023-06-22T14:21:09;7.47;;;3.60;;
17496;SDS011;62150;43.582;1.456;2023-06-22T14:23:36;6.22;;;3.50;;
17496;SDS011;62150;43.582;1.456;2023-06-22T14:26:05;6.82;;;3.63;;
17496;SDS011;62150;43.582;1.456;2023-06-22T14:28:32;6.93;;;3.63;;
17496;SDS011;62150;43.582;1.456;2023-06-22T14:31:00;6.97;;;3.92;;
17496;SDS011;62150;43.582;1.456;2023-06-22T14:33:28;7.25;;;3.72;;
17496;SDS011;62150;43.582;1.456;2023-06-22T14:35:55;6.85;;;3.65;;
17496;SDS011;62150;43.582;1.456;2023-06-22T14:38:22;7.28;;;3.85;;
17496;SDS011;62150;43.582;1.456;2023-06-22T14:40:50;6.93;;;3.50;;
17496;SDS011;62150;43.582;1.456;2023-06-22T14:43:19;8.55;;;3.80;;
17496;SDS011;62150;43.582;1.456;2023-06-22T14:45:46;8.50;;;4.00;;
17496;SDS011;62150;43.582;1.456;2023-06-22T14:48:14;8.48;;;4.07;;
17496;SDS011;62150;43.582;1.456;2023-06-22T14:50:41;8.45;;;3.90;;
17496;SDS011;62150;43.582;1.456;2023-06-22T14:53:09;7.82;;;4.05;;
17496;SDS011;62150;43.582;1.456;2023-06-22T14:55:36;7.55;;;3.80;;
17496;SDS011;62150;43.582;1.456;2023-06-22T14:58:04;6.93;;;3.50;;
17496;SDS011;62150;43.582;1.456;2023-06-22T15:00:33;7.45;;;3.60;;
17496;SDS011;62150;43.582;1.456;2023-06-22T15:03:01;8.40;;;3.85;;
17496;SDS011;62150;43.582;1.456;2023-06-22T15:05:31;8.00;;;3.78;;
17496;SDS011;62150;43.582;1.456;2023-06-22T15:07:59;6.93;;;3.75;;
17496;SDS011;62150;43.582;1.456;2023-06-22T15:10:26;6.45;;;3.30;;
17496;SDS011;62150;43.582;1.456;2023-06-22T15:12:54;6.95;;;3.40;;
17496;SDS011;62150;43.582;1.456;2023-06-22T15:15:21;6.60;;;3.08;;
17496;SDS011;62150;43.582;1.456;2023-06-22T15:17:50;6.35;;;3.40;;
17496;SDS011;62150;43.582;1.456;2023-06-22T15:20:18;8.85;;;3.60;;
17496;SDS011;62150;43.582;1.456;2023-06-22T15:22:45;7.97;;;3.45;;
17496;SDS011;62150;43.582;1.456;2023-06-22T15:25:13;6.80;;;3.25;;
17496;SDS011;62150;43.582;1.456;2023-06-22T15:27:40;7.03;;;3.50;;
17496;SDS011;62150;43.582;1.456;2023-06-22T15:30:08;6.00;;;3.10;;
17496;SDS011;62150;43.582;1.456;2023-06-22T15:32:36;6.03;;;3.30;;
17496;SDS011;62150;43.582;1.456;2023-06-22T15:35:05;7.38;;;3.40;;
17496;SDS011;62150;43.582;1.456;2023-06-22T15:37:33;7.97;;;3.95;;
17496;SDS011;62150;43.582;1.456;2023-06-22T15:40:00;6.57;;;3.40;;
17496;SDS011;62150;43.582;1.456;2023-06-22T15:42:29;5.13;;;3.20;;
17496;SDS011;62150;43.582;1.456;2023-06-22T15:44:56;7.18;;;3.30;;
17496;SDS011;62150;43.582;1.456;2023-06-22T15:47:24;8.75;;;3.47;;
17496;SDS011;62150;43.582;1.456;2023-06-22T15:49:51;7.80;;;3.75;;
17496;SDS011;62150;43.582;1.456;2023-06-22T15:52:20;7.25;;;3.65;;
17496;SDS011;62150;43.582;1.456;2023-06-22T15:54:48;7.55;;;3.70;;
17496;SDS011;62150;43.582;1.456;2023-06-22T15:57:19;8.95;;;4.00;;
17496;SDS011;62150;43.582;1.456;2023-06-22T15:59:47;8.30;;;3.92;;
17496;SDS011;62150;43.582;1.456;2023-06-22T16:02:15;9.27;;;4.22;;
17496;SDS011;62150;43.582;1.456;2023-06-22T16:04:42;7.85;;;4.07;;
17496;SDS011;62150;43.582;1.456;2023-06-22T16:07:10;8.80;;;4.05;;
17496;SDS011;62150;43.582;1.456;2023-06-22T16:09:39;9.35;;;4.15;;
17496;SDS011;62150;43.582;1.456;2023-06-22T16:12:07;8.25;;;4.10;;
17496;SDS011;62150;43.582;1.456;2023-06-22T16:14:35;8.13;;;3.95;;
17496;SDS011;62150;43.582;1.456;2023-06-22T16:17:03;7.47;;;4.10;;
17496;SDS011;62150;43.582;1.456;2023-06-22T16:19:30;9.32;;;4.10;;
17496;SDS011;62150;43.582;1.456;2023-06-22T16:21:58;6.97;;;3.83;;
17496;SDS011;62150;43.582;1.456;2023-06-22T16:24:25;7.85;;;3.97;;
17496;SDS011;62150;43.582;1.456;2023-06-22T16:26:55;9.25;;;4.10;;
17496;SDS011;62150;43.582;1.456;2023-06-22T16:29:22;8.98;;;4.30;;
17496;SDS011;62150;43.582;1.456;2023-06-22T16:31:50;8.07;;;3.80;;
17496;SDS011;62150;43.582;1.456;2023-06-22T16:34:17;9.25;;;4.38;;
17496;SDS011;62150;43.582;1.456;2023-06-22T16:36:45;9.52;;;4.28;;
17496;SDS011;62150;43.582;1.456;2023-06-22T16:39:13;8.43;;;4.10;;
17496;SDS011;62150;43.582;1.456;2023-06-22T16:41:40;7.85;;;4.00;;
17496;SDS011;62150;43.582;1.456;2023-06-22T16:44:11;7.22;;;3.50;;
17496;SDS011;62150;43.582;1.456;2023-06-22T16:46:39;4.82;;;2.97;;
17496;SDS011;62150;43.582;1.456;2023-06-22T16:49:06;5.93;;;3.10;;
17496;SDS011;62150;43.582;1.456;2023-06-22T16:51:34;5.78;;;2.90;;
17496;SDS011;62150;43.582;1.456;2023-06-22T16:54:01;6.47;;;2.78;;
17496;SDS011;62150;43.582;1.456;2023-06-22T16:56:30;5.50;;;2.83;;
17496;SDS011;62150;43.582;1.456;2023-06-22T16:58:57;5.55;;;2.90;;
17496;SDS011;62150;43.582;1.456;2023-06-22T17:01:27;4.53;;;2.65;;
17496;SDS011;62150;43.582;1.456;2023-06-22T17:04:01;6.25;;;3.00;;
17496;SDS011;62150;43.582;1.456;2023-06-22T17:06:32;5.75;;;3.20;;
17496;SDS011;62150;43.582;1.456;2023-06-22T17:09:00;7.15;;;3.40;;
17496;SDS011;62150;43.582;1.456;2023-06-22T17:11:29;6.00;;;3.13;;
17496;SDS011;62150;43.582;1.456;2023-06-22T17:13:57;5.95;;;3.28;;
17496;SDS011;62150;43.582;1.456;2023-06-22T17:16:34;8.75;;;3.58;;
17496;SDS011;62150;43.582;1.456;2023-06-22T17:19:03;7.63;;;3.60;;
17496;SDS011;62150;43.582;1.456;2023-06-22T17:21:32;6.32;;;3.10;;
17496;SDS011;62150;43.582;1.456;2023-06-22T17:24:00;8.45;;;3.58;;
17496;SDS011;62150;43.582;1.456;2023-06-22T17:26:29;6.05;;;3.10;;
17496;SDS011;62150;43.582;1.456;2023-06-22T17:28:57;7.18;;;3.40;;
17496;SDS011;62150;43.582;1.456;2023-06-22T17:31:42;6.55;;;3.17;;
17496;SDS011;62150;43.582;1.456;2023-06-22T17:34:13;6.70;;;3.50;;
17496;SDS011;62150;43.582;1.456;2023-06-22T17:36:42;6.70;;;3.55;;
17496;SDS011;62150;43.582;1.456;2023-06-22T17:39:10;6.53;;;3.40;;
17496;SDS011;62150;43.582;1.456;2023-06-22T17:41:39;7.53;;;3.40;;
17496;SDS011;62150;43.582;1.456;2023-06-22T17:44:08;8.43;;;3.22;;
17496;SDS011;62150;43.582;1.456;2023-06-22T17:46:39;7.43;;;3.58;;
17496;SDS011;62150;43.582;1.456;2023-06-22T17:49:08;8.85;;;3.38;;
17496;SDS011;62150;43.582;1.456;2023-06-22T17:51:40;7.85;;;3.33;;
17496;SDS011;62150;43.582;1.456;2023-06-22T17:54:08;7.25;;;3.50;;
17496;SDS011;62150;43.582;1.456;2023-06-22T17:56:37;7.45;;;3.58;;
17496;SDS011;62150;43.582;1.456;2023-06-22T17:59:05;7.22;;;3.38;;
17496;SDS011;62150;43.582;1.456;2023-06-22T18:01:33;7.10;;;3.70;;
17496;SDS011;62150;43.582;1.456;2023-06-22T18:04:07;7.68;;;3.50;;
17496;SDS011;62150;43.582;1.456;2023-06-22T18:06:36;9.40;;;3.92;;
17496;SDS011;62150;43.582;1.456;2023-06-22T18:09:05;7.50;;;3.75;;
17496;SDS011;62150;43.582;1.456;2023-06-22T18:11:34;7.70;;;3.72;;
17496;SDS011;62150;43.582;1.456;2023-06-22T18:14:06;9.05;;;3.80;;
17496;SDS011;62150;43.582;1.456;2023-06-22T18:16:34;8.65;;;4.00;;
17496;SDS011;62150;43.582;1.456;2023-06-22T18:19:02;9.13;;;3.85;;
17496;SDS011;62150;43.582;1.456;2023-06-22T18:21:31;8.32;;;3.70;;
17496;SDS011;62150;43.582;1.456;2023-06-22T18:23:59;8.02;;;3.88;;
17496;SDS011;62150;43.582;1.456;2023-06-22T18:26:27;9.25;;;4.18;;
17496;SDS011;62150;43.582;1.456;2023-06-22T18:28:55;9.40;;;4.25;;
17496;SDS011;62150;43.582;1.456;2023-06-22T18:31:23;9.43;;;4.00;;
17496;SDS011;62150;43.582;1.456;2023-06-22T18:33:51;9.75;;;4.25;;
17496;SDS011;62150;43.582;1.456;2023-06-22T18:36:21;9.30;;;4.15;;
17496;SDS011;62150;43.582;1.456;2023-06-22T18:38:53;8.93;;;4.25;;
17496;SDS011;62150;43.582;1.456;2023-06-22T18:41:24;10.68;;;4.40;;
17496;SDS011;62150;43.582;1.456;2023-06-22T18:43:59;9.48;;;4.28;;
17496;SDS011;62150;43.582;1.456;2023-06-22T18:46:30;10.02;;;4.30;;
17496;SDS011;62150;43.582;1.456;2023-06-22T18:48:59;8.35;;;4.10;;
17496;SDS011;62150;43.582;1.456;2023-06-22T18:51:49;8.95;;;4.32;;
17496;SDS011;62150;43.582;1.456;2023-06-22T18:54:20;8.60;;;4.35;;
17496;SDS011;62150;43.582;1.456;2023-06-22T18:56:52;9.43;;;4.68;;
17496;SDS011;62150;43.582;1.456;2023-06-22T19:02:14;8.70;;;4.25;;
17496;SDS011;62150;43.582;1.456;2023-06-22T19:05:06;9.30;;;4.22;;
17496;SDS011;62150;43.582;1.456;2023-06-22T19:07:55;8.35;;;4.32;;
17496;SDS011;62150;43.582;1.456;2023-06-22T19:10:26;8.45;;;4.18;;
17496;SDS011;62150;43.582;1.456;2023-06-22T19:12:55;8.95;;;4.18;;
17496;SDS011;62150;43.582;1.456;2023-06-22T19:15:29;9.02;;;4.47;;
17496;SDS011;62150;43.582;1.456;2023-06-22T19:17:59;9.50;;;4.53;;
17496;SDS011;62150;43.582;1.456;2023-06-22T19:20:39;9.88;;;5.00;;
17496;SDS011;62150;43.582;1.456;2023-06-22T19:23:07;10.13;;;4.38;;
17496;SDS011;62150;43.582;1.456;2023-06-22T19:25:52;10.40;;;4.82;;
17496;SDS011;62150;43.582;1.456;2023-06-22T19:28:23;8.82;;;4.63;;
17496;SDS011;62150;43.582;1.456;2023-06-22T19:30:52;10.00;;;4.90;;
17496;SDS011;62150;43.582;1.456;2023-06-22T19:33:20;10.93;;;5.15;;
17496;SDS011;62150;43.582;1.456;2023-06-22T19:35:48;10.55;;;4.97;;
17496;SDS011;62150;43.582;1.456;2023-06-22T19:38:23;9.60;;;4.90;;
17496;SDS011;62150;43.582;1.456;2023-06-22T19:40:53;9.60;;;5.00;;
17496;SDS011;62150;43.582;1.456;2023-06-22T19:43:20;10.45;;;5.13;;
17496;SDS011;62150;43.582;1.456;2023-06-22T19:45:52;10.05;;;4.80;;
17496;SDS011;62150;43.582;1.456;2023-06-22T19:48:23;10.40;;;5.18;;
17496;SDS011;62150;43.582;1.456;2023-06-22T19:50:52;10.32;;;5.28;;
17496;SDS011;62150;43.582;1.456;2023-06-22T19:53:20;10.63;;;5.07;;
17496;SDS011;62150;43.582;1.456;2023-06-22T19:55:49;10.32;;;5.10;;
17496;SDS011;62150;43.582;1.456;2023-06-22T19:58:19;11.30;;;4.97;;
17496;SDS011;62150;43.582;1.456;2023-06-22T20:00:48;10.02;;;4.70;;
17496;SDS011;62150;43.582;1.456;2023-06-22T20:03:21;12.18;;;5.38;;
17496;SDS011;62150;43.582;1.456;2023-06-22T20:05:52;9.73;;;5.10;;
17496;SDS011;62150;43.582;1.456;2023-06-22T20:08:20;9.70;;;5.22;;
17496;SDS011;62150;43.582;1.456;2023-06-22T20:10:47;12.05;;;5.68;;
17496;SDS011;62150;43.582;1.456;2023-06-22T20:13:16;11.13;;;5.57;;
17496;SDS011;62150;43.582;1.456;2023-06-22T20:15:47;11.63;;;5.90;;
17496;SDS011;62150;43.582;1.456;2023-06-22T20:18:15;10.00;;;5.10;;
17496;SDS011;62150;43.582;1.456;2023-06-22T20:20:43;10.27;;;4.93;;
17496;SDS011;62150;43.582;1.456;2023-06-22T20:23:12;10.23;;;4.88;;
17496;SDS011;62150;43.582;1.456;2023-06-22T20:25:44;8.75;;;4.85;;
17496;SDS011;62150;43.582;1.456;2023-06-22T20:28:12;10.40;;;5.13;;
17496;SDS011;62150;43.582;1.456;2023-06-22T20:30:42;10.82;;;5.10;;
17496;SDS011;62150;43.582;1.456;2023-06-22T20:33:28;10.05;;;5.13;;
17496;SDS011;62150;43.582;1.456;2023-06-22T20:35:56;10.07;;;5.05;;
17496;SDS011;62150;43.582;1.456;2023-06-22T20:38:23;10.88;;;5.05;;
17496;SDS011;62150;43.582;1.456;2023-06-22T20:40:53;9.80;;;5.30;;
17496;SDS011;62150;43.582;1.456;2023-06-22T20:43:21;9.73;;;4.85;;
17496;SDS011;62150;43.582;1.456;2023-06-22T20:45:50;11.13;;;5.20;;
17496;SDS011;62150;43.582;1.456;2023-06-22T20:48:20;11.23;;;5.43;;
17496;SDS011;62150;43.582;1.456;2023-06-22T20:50:51;10.40;;;5.25;;
17496;SDS011;62150;43.582;1.456;2023-06-22T20:53:22;10.48;;;5.07;;
17496;SDS011;62150;43.582;1.456;2023-06-22T20:55:49;10.55;;;5.53;;
17496;SDS011;62150;43.582;1.456;2023-06-22T20:58:17;11.32;;;5.35;;
17496;SDS011;62150;43.582;1.456;2023-06-22T21:00:44;10.13;;;5.15;;
17496;SDS011;62150;43.582;1.456;2023-06-22T21:03:13;10.35;;;5.28;;
17496;SDS011;62150;43.582;1.456;2023-06-22T21:05:41;10.60;;;5.03;;
17496;SDS011;62150;43.582;1.456;2023-06-22T21:08:09;10.05;;;4.88;;
17496;SDS011;62150;43.582;1.456;2023-06-22T21:10:36;10.43;;;5.15;;
